Aeroporto :
LOGIN :

Iscrizione | Disclaimer

   EN    FR    IT 

 










Sommario :    VFR   VFR Marginale   IFR   IFR Intensivo   IFR Molto Intensivo
Visibilità : 
Base nubi : 
>= 8 km
>= 3000ft
5 / 8 km
1000 / 3000 ft
1500m / 5 km
500 / 1000 ft
800 / 1500m
200 / 500 ft
< 800m
< 200 ft
Simboli :   Temporali  Nebbia  Neve Forte  Precipitazioni Forti  Vento > 20 kt
SIGMETs :   Varie  Temporali  Ghiacco  Turbolenza  Onda orograficha  Ceneri Vulcaniche






- Altitudine del aeroporto : 404 ft
- Codice IATA : WRO


EPWR - Wroclaw

ULTIMO METAR :
  • 251530Z 23008KT 9999 BKN042 10/06 Q0996

METARs OBSOLETI :
  • 251500Z 21008KT 9999 -RA BKN042 10/07 Q0997
  • 251430Z 21008KT 9999 -RA FEW039 10/07 Q0997
  • 251400Z 21010KT 9999 -RA FEW036 11/07 Q0997
  • 251330Z 21009KT 170V240 9999 FEW040 11/06 Q0997
  • 251300Z 22012KT 9999 FEW041 12/06 Q0998

TAF TAF EPWR
Valido dal 25 a 15 ore il 26 a 15 ore UTC


251430Z 2515/2615 23012KT 9999 SCT025
TEMPO 2515/2524 26015G25KT 4000 SHRA BKN009 BKN014CB
PROB40
TEMPO 2610/2615 26015G30KT 4000 SHRA BKN014CB



MetMap, La meteo Aeronautica in un colpo d'occhio ! - Copyright ORBIFLY Dicembre 2007 - Disclaimer

ORBIFLY MET'MAP TEAM :

Programmazione e sviluppo : Alexandra Zaïnal
Concezione : Baudouin d'Aumeries
Aiuto per la programmazione : Marc-Olivier Méhu
Supporto tecnico e logistico : Manuel Goepfert
Aiuto per la traduzione : Arnaldo La Scala

Contatto : metmap@orbifly.com




FONTI E CREDITI :

   NOAA